Time;durP1;ratioP1;P1;durP2;ratioP2;P2;SDS_P1;SDS_P2;PMS_P1;PMS_P2;Temp;Humidity;BMP_temperature;BMP_pressure;BME280_temperature;BME280_humidity;BME280_pressure;Samples;Min_cycle;Max_cycle;Signal;HPM_P1;HPM_P2
2023/03/24 00:02:21;;;;;;;13.23;11.87;;;;;;;5.48;97.29;92887.72;5068782;28;20216;-70
2023/03/24 00:04:48;;;;;;;14.00;12.87;;;;;;;5.45;97.82;92883.78;5068002;28;20237;-70
2023/03/24 00:07:15;;;;;;;13.53;12.23;;;;;;;5.33;99.26;92884.91;5067724;28;20205;-70
2023/03/24 00:09:42;;;;;;;15.47;13.23;;;;;;;5.24;99.91;92886.34;5067999;28;20226;-70
2023/03/24 00:12:12;;;;;;;14.07;12.97;;;;;;;5.31;98.94;92887.72;5068917;28;20221;-69
2023/03/24 00:14:39;;;;;;;17.47;16.00;;;;;;;5.37;98.90;92888.59;5068351;28;20313;-71
2023/03/24 00:17:08;;;;;;;15.23;13.67;;;;;;;5.28;99.01;92887.41;5068853;28;20189;-70
2023/03/24 00:19:37;;;;;;;16.83;15.23;;;;;;;5.38;98.92;92882.38;5068179;28;20240;-70
2023/03/24 00:22:07;;;;;;;14.87;13.63;;;;;;;5.36;98.09;92889.59;5068028;28;20248;-70
2023/03/24 00:24:33;;;;;;;14.23;13.03;;;;;;;5.18;99.02;92875.16;5068336;28;20278;-70
2023/03/24 00:26:59;;;;;;;12.87;11.90;;;;;;;5.31;98.93;92897.31;5068547;28;20200;-70
2023/03/24 00:29:26;;;;;;;13.30;12.23;;;;;;;5.31;99.25;92886.97;5069981;28;20216;-70
2023/03/24 00:31:52;;;;;;;12.53;11.73;;;;;;;5.31;98.25;92897.31;5071230;28;20186;-69
2023/03/24 00:34:22;;;;;;;13.53;12.17;;;;;;;5.38;98.65;92892.75;5103782;28;20215;-70
2023/03/24 00:36:49;;;;;;;11.70;11.00;;;;;;;5.30;98.98;92890.56;5071200;28;20193;-70
2023/03/24 00:39:16;;;;;;;14.03;12.80;;;;;;;5.28;99.50;92895.97;5071460;28;20189;-70
2023/03/24 00:41:46;;;;;;;13.53;12.43;;;;;;;5.30;99.49;92887.97;5071939;28;20205;-70
2023/03/24 00:44:18;;;;;;;13.63;12.50;;;;;;;5.27;100.00;92891.03;5072163;28;20355;-70
2023/03/24 00:46:45;;;;;;;15.23;13.70;;;;;;;5.20;100.00;92885.28;5071075;28;20236;-70
2023/03/24 00:49:12;;;;;;;14.87;13.50;;;;;;;5.09;100.00;92873.97;5071012;28;20313;-70
2023/03/24 00:51:41;;;;;;;15.23;13.73;;;;;;;5.04;100.00;92870.56;5071579;28;20198;-70
2023/03/24 00:54:11;;;;;;;15.37;14.07;;;;;;;4.98;100.00;92872.28;5071658;28;20185;-69
2023/03/24 00:56:39;;;;;;;14.97;13.63;;;;;;;5.08;100.00;92871.63;5070785;28;20213;-70
2023/03/24 00:59:05;;;;;;;15.33;13.73;;;;;;;5.23;100.00;92877.78;5071802;28;20261;-69
2023/03/24 01:01:33;;;;;;;14.50;13.30;;;;;;;5.14;100.00;92874.06;5070983;28;20242;-70
2023/03/24 01:04:00;;;;;;;13.63;12.63;;;;;;;5.27;100.00;92875.50;5070608;28;20197;-70
2023/03/24 01:06:25;;;;;;;14.00;12.93;;;;;;;5.17;99.94;92872.81;5070780;28;20236;-70
2023/03/24 01:08:52;;;;;;;13.27;11.87;;;;;;;5.17;99.13;92872.81;5071254;28;20280;-69
2023/03/24 01:11:23;;;;;;;12.57;11.67;;;;;;;5.08;99.49;92875.00;5071054;28;20225;-69
2023/03/24 01:13:50;;;;;;;12.23;11.40;;;;;;;5.02;100.00;92868.19;5071634;28;20205;-69
2023/03/24 01:16:16;;;;;;;12.23;11.30;;;;;;;5.04;100.00;92861.00;5070575;28;20217;-70
2023/03/24 01:18:42;;;;;;;14.07;12.83;;;;;;;4.91;100.00;92863.91;5070712;28;20775;-69
2023/03/24 01:21:10;;;;;;;13.70;12.63;;;;;;;5.03;100.00;92869.00;5069016;28;20316;-70
2023/03/24 01:23:36;;;;;;;12.70;11.73;;;;;;;5.10;100.00;92874.78;5070960;28;20218;-70
2023/03/24 01:26:06;;;;;;;11.63;10.73;;;;;;;4.94;100.00;92868.59;5069146;28;20236;-70
2023/03/24 01:28:32;;;;;;;12.53;11.63;;;;;;;4.98;100.00;92861.91;5069726;28;20189;-68
2023/03/24 01:30:58;;;;;;;15.10;13.63;;;;;;;4.97;100.00;92861.16;5068967;28;20233;-70
2023/03/24 01:33:23;;;;;;;14.60;13.30;;;;;;;5.05;100.00;92856.59;5070596;28;20241;-70
2023/03/24 01:35:49;;;;;;;14.87;13.60;;;;;;;4.95;100.00;92837.31;5070253;28;20210;-70
2023/03/24 01:38:14;;;;;;;14.57;13.37;;;;;;;5.04;100.00;92855.03;5070796;28;20177;-69
2023/03/24 01:40:43;;;;;;;14.17;12.90;;;;;;;4.85;100.00;92854.50;5069444;28;20225;-70
2023/03/24 01:43:26;;;;;;;13.53;12.33;;;;;;;4.81;100.00;92851.63;5071005;28;20190;-70
2023/03/24 01:46:06;;;;;;;13.37;12.40;;;;;;;4.71;100.00;92855.88;5069872;28;20251;-69
2023/03/24 01:48:38;;;;;;;13.90;12.50;;;;;;;4.71;100.00;92854.06;5067938;28;20173;-69
2023/03/24 01:51:15;;;;;;;13.83;12.73;;;;;;;4.85;100.00;92860.47;5067832;28;20225;-70
2023/03/24 01:54:19;;;;;;;14.17;12.77;;;;;;;4.81;100.00;92861.97;5069984;28;21428;-69
2023/03/24 01:56:49;;;;;;;15.10;13.67;;;;;;;4.88;100.00;92864.38;5069314;28;20221;-70
2023/03/24 01:59:23;;;;;;;15.03;13.63;;;;;;;4.73;100.00;92851.25;5069326;28;20314;-70
2023/03/24 02:01:48;;;;;;;14.07;12.87;;;;;;;4.75;100.00;92865.50;5070309;28;20186;-69
2023/03/24 02:04:15;;;;;;;13.37;12.37;;;;;;;4.66;100.00;92863.53;5070267;28;20194;-70
2023/03/24 02:06:42;;;;;;;13.43;12.10;;;;;;;4.80;100.00;92869.97;5069631;28;20185;-70
2023/03/24 02:09:10;;;;;;;13.27;12.27;;;;;;;4.79;100.00;92866.56;5069351;28;20221;-69
2023/03/24 02:11:37;;;;;;;12.60;11.63;;;;;;;4.76;100.00;92867.06;5068911;28;20243;-70
2023/03/24 02:14:03;;;;;;;13.67;12.47;;;;;;;4.83;100.00;92869.47;5070625;28;20209;-71
2023/03/24 02:16:37;;;;;;;13.57;12.57;;;;;;;4.80;100.00;92875.13;5069365;28;20240;-72
2023/03/24 02:19:25;;;;;;;14.37;13.17;;;;;;;4.72;100.00;92873.72;5070021;28;20255;-72
2023/03/24 02:22:18;;;;;;;13.17;12.00;;;;;;;4.68;100.00;92875.22;5069316;28;20217;-72
2023/03/24 02:25:08;;;;;;;15.50;14.20;;;;;;;4.76;100.00;92874.81;5069370;28;20233;-73
2023/03/24 02:27:59;;;;;;;13.63;12.53;;;;;;;4.60;100.00;92867.06;5069279;28;20213;-72
2023/03/24 02:30:41;;;;;;;14.00;12.60;;;;;;;4.55;100.00;92862.63;5068935;28;20232;-71
2023/03/24 02:33:25;;;;;;;14.63;13.27;;;;;;;4.52;100.00;92872.63;5067869;28;20192;-72
2023/03/24 02:36:15;;;;;;;14.83;13.63;;;;;;;4.64;100.00;92871.53;5068977;28;20233;-73
2023/03/24 02:39:08;;;;;;;14.97;13.57;;;;;;;4.57;100.00;92865.75;5069241;28;20186;-72
2023/03/24 02:42:00;;;;;;;15.20;13.83;;;;;;;4.62;100.00;92850.28;5069163;28;20236;-71
2023/03/24 02:45:13;;;;;;;14.87;13.57;;;;;;;4.60;100.00;92849.78;5067572;28;20197;-72
2023/03/24 02:47:54;;;;;;;15.33;14.17;;;;;;;4.61;100.00;92851.31;5068043;28;20189;-73
2023/03/24 02:50:51;;;;;;;14.10;12.70;;;;;;;4.62;100.00;92839.94;5068546;28;20236;-72
2023/03/24 02:53:30;;;;;;;13.10;12.03;;;;;;;4.63;100.00;92838.94;5069402;28;20224;-73
2023/03/24 02:56:11;;;;;;;13.07;12.03;;;;;;;4.57;100.00;92837.31;5068843;28;20233;-72
2023/03/24 02:59:04;;;;;;;12.60;11.77;;;;;;;4.51;100.00;92835.66;5069179;28;20206;-72
2023/03/24 03:01:52;;;;;;;13.60;12.60;;;;;;;4.50;100.00;92828.94;5066979;28;20237;-72
2023/03/24 03:04:24;;;;;;;13.50;12.37;;;;;;;4.68;100.00;92841.63;5068213;28;20200;-73
2023/03/24 03:06:54;;;;;;;12.77;11.67;;;;;;;4.74;100.00;92825.16;5068515;28;20184;-72
2023/03/24 03:09:22;;;;;;;13.50;12.40;;;;;;;4.80;100.00;92821.63;5067503;28;20193;-72
2023/03/24 03:11:52;;;;;;;14.93;13.63;;;;;;;4.88;100.00;92826.38;5067564;28;20189;-72
2023/03/24 03:14:27;;;;;;;14.23;13.03;;;;;;;4.79;100.00;92806.34;5069091;28;20189;-72
2023/03/24 03:17:10;;;;;;;14.97;13.60;;;;;;;5.03;100.00;92825.00;5068192;28;20185;-73
2023/03/24 03:19:43;;;;;;;14.10;12.77;;;;;;;5.12;100.00;92832.09;5068505;28;20254;-72
2023/03/24 03:22:17;;;;;;;14.63;13.33;;;;;;;5.14;100.00;92829.31;5068278;28;20181;-72
2023/03/24 03:24:49;;;;;;;14.77;13.47;;;;;;;4.95;100.00;92821.81;5067807;28;20237;-73
2023/03/24 03:27:47;;;;;;;15.77;14.37;;;;;;;4.95;100.00;92821.81;5068000;28;20189;-72
2023/03/24 03:30:29;;;;;;;13.67;12.57;;;;;;;5.07;100.00;92836.44;5077348;28;20229;-72
2023/03/24 03:33:01;;;;;;;14.80;13.50;;;;;;;5.01;100.00;92842.56;5068256;28;20169;-72
2023/03/24 03:35:37;;;;;;;13.30;12.10;;;;;;;5.02;100.00;92823.44;5068197;28;20225;-72
2023/03/24 03:38:21;;;;;;;13.03;11.93;;;;;;;4.98;100.00;92826.50;5067916;28;20197;-72
2023/03/24 03:40:54;;;;;;;14.23;12.90;;;;;;;5.01;100.00;92812.31;5067279;28;20228;-73
2023/03/24 03:43:21;;;;;;;14.77;13.37;;;;;;;5.09;100.00;92816.28;5069213;28;20213;-72
2023/03/24 03:45:46;;;;;;;14.77;13.47;;;;;;;4.92;100.00;92806.75;5068080;28;20229;-72
2023/03/24 03:48:12;;;;;;;13.93;12.87;;;;;;;4.90;100.00;92813.97;5068828;28;20206;-72
2023/03/24 03:50:38;;;;;;;14.50;13.17;;;;;;;4.84;100.00;92817.53;5067432;28;20257;-72
2023/03/24 03:53:05;;;;;;;13.50;12.47;;;;;;;4.90;100.00;92824.31;5068084;28;20190;-71
2023/03/24 03:55:31;;;;;;;14.83;13.60;;;;;;;4.95;100.00;92826.97;5068407;28;20220;-72
2023/03/24 03:57:57;;;;;;;12.97;11.97;;;;;;;4.96;100.00;92832.94;5068673;28;20208;-72
2023/03/24 04:00:24;;;;;;;14.30;12.93;;;;;;;4.90;100.00;92834.66;5067539;28;20297;-72
2023/03/24 04:03:08;;;;;;;12.90;11.87;;;;;;;4.92;100.00;92847.34;5068602;28;20181;-73
2023/03/24 04:05:44;;;;;;;14.03;12.93;;;;;;;4.80;100.00;92842.31;5070163;28;20229;-72
2023/03/24 04:08:32;;;;;;;13.53;12.47;;;;;;;4.82;100.00;92847.22;5072585;28;20209;-73
2023/03/24 04:11:46;;;;;;;14.10;13.00;;;;;;;4.77;100.00;92845.38;5071399;28;20233;-72
2023/03/24 04:14:26;;;;;;;14.10;12.93;;;;;;;4.83;100.00;92843.63;5087879;28;20215;-72
2023/03/24 04:17:14;;;;;;;15.77;14.13;;;;;;;4.77;100.00;92840.19;5071613;28;20236;-72
2023/03/24 04:20:01;;;;;;;14.67;13.23;;;;;;;4.77;100.00;92847.16;5071622;28;20221;-72
2023/03/24 04:23:00;;;;;;;14.50;13.40;;;;;;;4.66;100.00;92846.22;5072483;28;20197;-72
2023/03/24 04:25:34;;;;;;;14.97;13.67;;;;;;;4.52;100.00;92836.44;5071521;28;20315;-72
2023/03/24 04:28:20;;;;;;;14.37;13.17;;;;;;;4.51;100.00;92835.66;5072091;28;20216;-72
2023/03/24 04:30:51;;;;;;;14.97;13.57;;;;;;;4.59;100.00;92837.84;5069959;28;20231;-73
2023/03/24 04:33:27;;;;;;;13.87;12.57;;;;;;;4.59;100.00;92847.41;5071095;28;20239;-74
2023/03/24 04:36:05;;;;;;;15.33;13.90;;;;;;;4.67;100.00;92839.25;5071783;28;20225;-73
2023/03/24 04:38:34;;;;;;;15.50;14.20;;;;;;;4.50;100.00;92849.59;5071952;28;20177;-73
2023/03/24 04:41:02;;;;;;;15.33;14.03;;;;;;;4.57;100.00;92839.91;5071127;28;20232;-73
2023/03/24 04:43:34;;;;;;;14.20;13.10;;;;;;;4.38;100.00;92801.59;5071796;28;20189;-76
2023/03/24 04:46:01;;;;;;;14.73;13.20;;;;;;;4.82;100.00;92847.22;5071327;28;20331;-74
2023/03/24 04:48:26;;;;;;;14.07;12.97;;;;;;;4.62;100.00;92837.38;5065685;28;20201;-74
2023/03/24 04:50:55;;;;;;;15.97;14.47;;;;;;;4.90;100.00;92857.19;5068885;28;20206;-75
2023/03/24 04:53:21;;;;;;;14.53;13.17;;;;;;;4.99;100.00;92863.50;5069718;28;20208;-72
2023/03/24 04:55:49;;;;;;;16.63;15.13;;;;;;;5.20;100.00;92869.75;5070036;28;20320;-69
2023/03/24 04:58:20;;;;;;;16.37;14.97;;;;;;;5.21;100.00;92877.28;5068176;28;20193;-72
2023/03/24 05:00:46;;;;;;;20.87;15.70;;;;;;;5.19;100.00;92853.44;5069557;28;20229;-71
2023/03/24 05:03:13;;;;;;;18.00;16.20;;;;;;;5.23;100.00;92870.03;5070744;28;20189;-73
2023/03/24 05:05:47;;;;;;;18.30;16.50;;;;;;;5.30;100.00;92880.22;5069706;28;20240;-75
2023/03/24 05:08:13;;;;;;;18.70;16.80;;;;;;;5.47;100.00;92880.94;5071544;28;20184;-74
2023/03/24 05:10:38;;;;;;;18.77;16.83;;;;;;;5.54;100.00;92877.16;5070658;28;20227;-74
2023/03/24 05:13:05;;;;;;;18.10;16.30;;;;;;;5.55;100.00;92876.13;5070111;28;20197;-69
2023/03/24 05:15:31;;;;;;;19.27;16.37;;;;;;;5.60;100.00;92885.78;5069771;28;20237;-69
2023/03/24 05:17:57;;;;;;;18.10;16.20;;;;;;;5.66;100.00;92883.00;5071415;28;20181;-71
2023/03/24 05:20:23;;;;;;;18.53;16.83;;;;;;;5.65;100.00;92884.00;5070545;28;20225;-71
2023/03/24 05:22:49;;;;;;;17.63;15.73;;;;;;;5.89;100.00;92887.94;5071174;28;20185;-73
2023/03/24 05:25:15;;;;;;;17.83;15.60;;;;;;;5.91;100.00;92885.13;5070517;28;20707;-82
2023/03/24 05:27:42;;;;;;;17.70;15.83;;;;;;;6.03;100.00;92889.13;5069594;28;20193;-75
2023/03/24 05:30:08;;;;;;;26.80;16.60;;;;;;;6.09;100.00;92882.97;5068932;28;20252;-74
2023/03/24 05:32:33;;;;;;;17.33;15.50;;;;;;;6.39;100.00;92900.63;5070308;28;20424;-75
2023/03/24 05:34:59;;;;;;;23.00;18.57;;;;;;;6.45;98.13;92874.50;5069461;28;20225;-74
2023/03/24 05:37:26;;;;;;;19.67;17.53;;;;;;;6.68;97.39;92899.31;5068537;28;20193;-70
2023/03/24 05:39:52;;;;;;;20.50;17.43;;;;;;;6.57;98.88;92876.91;5065957;28;20248;-70
2023/03/24 05:42:17;;;;;;;23.43;21.03;;;;;;;6.71;98.82;92901.41;5067267;28;20181;-68
2023/03/24 05:44:44;;;;;;;21.53;19.23;;;;;;;6.61;99.03;92890.19;5068017;28;20252;-69
2023/03/24 05:47:11;;;;;;;26.10;21.77;;;;;;;6.69;99.59;92895.72;5067890;28;20182;-69
2023/03/24 05:49:37;;;;;;;28.90;21.77;;;;;;;6.68;99.79;92901.91;5067115;28;20229;-69
2023/03/24 05:52:02;;;;;;;22.60;18.40;;;;;;;6.55;99.21;92894.56;5068862;28;20197;-69
2023/03/24 05:54:27;;;;;;;23.50;20.17;;;;;;;6.87;98.01;92903.09;5067255;28;20683;-70
2023/03/24 05:56:53;;;;;;;25.17;19.77;;;;;;;7.05;97.12;92894.91;5067426;28;20181;-70
2023/03/24 05:59:18;;;;;;;22.40;18.87;;;;;;;7.22;95.61;92900.75;5068578;28;20299;-70
2023/03/24 06:01:43;;;;;;;25.47;20.10;;;;;;;7.18;95.45;92889.31;5068060;28;20267;-69
2023/03/24 06:04:09;;;;;;;25.97;20.63;;;;;;;7.38;95.16;92893.81;5067553;28;20205;-70
2023/03/24 06:06:37;;;;;;;25.33;21.40;;;;;;;7.46;95.67;92901.94;5068982;28;20217;-68
2023/03/24 06:09:03;;;;;;;28.07;22.03;;;;;;;7.53;95.98;92901.72;5068205;28;20229;-71
2023/03/24 06:11:29;;;;;;;27.00;21.50;;;;;;;7.63;96.05;92915.53;5068577;28;20221;-70
2023/03/24 06:13:59;;;;;;;27.43;21.70;;;;;;;7.71;96.04;92919.44;5069083;28;20213;-69
2023/03/24 06:16:28;;;;;;;28.10;21.23;;;;;;;7.67;96.13;92903.56;5069024;28;20316;-69
2023/03/24 06:18:54;;;;;;;29.43;22.47;;;;;;;7.68;96.96;92901.78;5068675;28;20173;-69
2023/03/24 06:21:20;;;;;;;26.73;21.30;;;;;;;7.74;97.90;92917.13;5067520;28;20240;-68
2023/03/24 06:23:46;;;;;;;27.93;21.37;;;;;;;7.68;97.07;92907.75;5068304;28;20192;-71
2023/03/24 06:26:13;;;;;;;27.80;21.10;;;;;;;7.95;96.63;92916.16;5068028;28;20229;-70
2023/03/24 06:28:40;;;;;;;37.03;23.70;;;;;;;8.21;96.04;92914.44;5068314;28;20194;-72
2023/03/24 06:31:20;;;;;;;33.57;24.53;;;;;;;7.95;98.67;92910.22;5066472;28;20245;-71
2023/03/24 06:33:46;;;;;;;31.70;24.23;;;;;;;8.15;97.21;92916.22;5067531;28;20197;-71
2023/03/24 06:36:12;;;;;;;30.40;23.00;;;;;;;8.14;97.73;92914.69;5067726;28;20256;-70
2023/03/24 06:38:39;;;;;;;33.17;24.47;;;;;;;8.00;97.34;92918.78;5066772;28;20228;-70
2023/03/24 06:41:05;;;;;;;34.17;24.57;;;;;;;8.30;95.81;92922.53;5066726;28;20229;-69
2023/03/24 06:43:31;;;;;;;35.77;23.97;;;;;;;8.37;95.30;92921.28;5065674;28;21546;-69
2023/03/24 06:45:57;;;;;;;28.97;23.93;;;;;;;8.63;93.67;92920.28;5064721;28;20233;-69
2023/03/24 06:48:24;;;;;;;36.83;24.43;;;;;;;8.67;93.92;92923.91;5068449;28;20197;-71
2023/03/24 06:50:51;;;;;;;34.20;24.90;;;;;;;8.32;96.86;92921.28;5066342;28;20237;-71
2023/03/24 06:53:17;;;;;;;32.13;23.97;;;;;;;8.63;95.26;92927.31;5065847;28;20189;-69
2023/03/24 06:55:42;;;;;;;30.97;23.97;;;;;;;8.79;94.66;92931.50;5065791;28;20225;-70
2023/03/24 06:58:08;;;;;;;29.27;25.03;;;;;;;8.98;93.31;92925.50;5065822;28;20197;-72
2023/03/24 07:00:33;;;;;;;32.43;23.27;;;;;;;8.83;94.55;92927.31;5065681;28;20225;-73
2023/03/24 07:03:01;;;;;;;32.33;25.87;;;;;;;8.99;93.21;92910.66;5068002;28;20189;-72
2023/03/24 07:05:27;;;;;;;34.30;23.63;;;;;;;9.33;91.35;92937.72;5065650;28;20263;-74
2023/03/24 07:07:53;;;;;;;32.47;24.53;;;;;;;9.40;91.28;92933.03;5066974;28;20195;-75
2023/03/24 07:10:20;;;;;;;36.70;24.80;;;;;;;9.43;90.92;92937.72;5067939;28;20233;-75
2023/03/24 07:12:47;;;;;;;33.23;24.60;;;;;;;9.34;90.76;92936.69;5070010;28;20177;-75
2023/03/24 07:15:12;;;;;;;36.90;25.13;;;;;;;9.58;90.00;92945.50;5065334;28;20232;-70
2023/03/24 07:17:40;;;;;;;31.27;23.83;;;;;;;9.49;89.64;92947.09;5068234;28;20767;-71
2023/03/24 07:20:07;;;;;;;31.93;24.13;;;;;;;9.40;90.33;92948.69;5064975;28;20229;-71
2023/03/24 07:22:35;;;;;;;29.67;24.17;;;;;;;9.58;89.25;92951.50;5067298;28;20201;-71
2023/03/24 07:25:03;;;;;;;31.57;24.57;;;;;;;9.50;90.27;92953.88;5063864;28;20245;-70
2023/03/24 07:27:31;;;;;;;30.47;23.97;;;;;;;9.71;87.56;92955.41;5067375;28;20196;-71
2023/03/24 07:29:57;;;;;;;36.00;23.93;;;;;;;9.35;90.04;92956.50;5062212;28;20226;-70
2023/03/24 07:32:23;;;;;;;35.97;24.70;;;;;;;9.73;89.28;92951.47;5063917;28;20193;-70
2023/03/24 07:34:49;;;;;;;29.17;24.03;;;;;;;10.08;86.22;92949.84;5065247;28;20253;-70
2023/03/24 07:37:15;;;;;;;27.97;21.67;;;;;;;10.07;85.14;92956.88;5067618;28;20190;-69
2023/03/24 07:39:40;;;;;;;25.93;20.93;;;;;;;10.20;83.19;92956.31;5068018;28;20249;-69
2023/03/24 07:42:06;;;;;;;24.03;20.67;;;;;;;10.08;84.81;92949.84;5071825;28;20190;-69
2023/03/24 07:44:32;;;;;;;28.80;21.30;;;;;;;9.78;86.87;92938.44;5069363;28;22521;-69
2023/03/24 07:46:57;;;;;;;31.60;21.30;;;;;;;10.19;84.35;92936.50;5071734;28;20197;-77
2023/03/24 07:49:22;;;;;;;27.83;22.07;;;;;;;10.17;83.01;92959.44;5070016;28;20185;-72
2023/03/24 07:51:48;;;;;;;37.37;21.57;;;;;;;10.20;84.32;92943.25;5069232;28;20186;-73
2023/03/24 07:54:13;;;;;;;26.00;21.17;;;;;;;10.64;81.75;92945.91;5069875;28;20216;-71
2023/03/24 07:56:39;;;;;;;27.67;21.10;;;;;;;10.43;82.52;92941.88;5071334;28;20206;-70
2023/03/24 07:59:04;;;;;;;29.97;21.87;;;;;;;10.75;80.66;92953.44;5068519;28;20220;-69
2023/03/24 08:01:30;;;;;;;32.70;22.67;;;;;;;10.71;81.55;92949.78;5069875;28;20253;-70
2023/03/24 08:03:56;;;;;;;29.73;21.77;;;;;;;10.51;83.29;92939.47;5070562;28;20186;-69
2023/03/24 08:06:22;;;;;;;26.77;20.63;;;;;;;11.16;80.21;92946.84;5070696;28;20243;-70
2023/03/24 08:08:47;;;;;;;31.97;22.30;;;;;;;11.31;78.83;92948.59;5069817;28;20182;-69
2023/03/24 08:11:12;;;;;;;30.03;21.23;;;;;;;11.47;78.73;92947.38;5065960;28;20251;-69
2023/03/24 08:13:38;;;;;;;28.10;20.40;;;;;;;11.52;77.54;92939.50;5069868;28;20185;-68
2023/03/24 08:16:03;;;;;;;27.03;21.20;;;;;;;11.49;79.66;92944.50;5069975;28;20284;-69
2023/03/24 08:18:30;;;;;;;28.73;21.27;;;;;;;11.69;76.66;92933.91;5068965;28;20324;-71
2023/03/24 08:20:57;;;;;;;29.93;20.73;;;;;;;11.69;75.17;92941.75;5068925;28;20245;-70
2023/03/24 08:23:24;;;;;;;30.57;21.43;;;;;;;11.29;77.11;92948.84;5069834;28;20177;-71
2023/03/24 08:25:50;;;;;;;30.87;23.17;;;;;;;11.15;80.58;92952.34;5066803;28;20228;-67
2023/03/24 08:28:15;;;;;;;32.87;21.13;;;;;;;11.48;76.59;92924.63;5069338;28;20666;-67
2023/03/24 08:30:42;;;;;;;29.20;21.53;;;;;;;11.77;76.29;92935.88;5067878;28;20245;-67
2023/03/24 08:33:12;;;;;;;27.43;19.53;;;;;;;11.89;76.05;92938.91;5073203;28;20216;-68
2023/03/24 08:35:38;;;;;;;29.77;20.37;;;;;;;11.87;74.37;92938.41;5068304;28;20268;-69
2023/03/24 08:38:04;;;;;;;27.27;20.50;;;;;;;11.60;77.49;92935.50;5069833;28;20189;-70
2023/03/24 08:40:30;;;;;;;27.73;20.23;;;;;;;11.99;73.97;92934.34;5066676;28;20237;-69
2023/03/24 08:42:59;;;;;;;25.43;20.57;;;;;;;12.05;73.67;92932.44;5066693;28;20194;-69
2023/03/24 08:45:29;;;;;;;24.20;19.63;;;;;;;12.02;74.74;92927.75;5068782;28;20265;-69
2023/03/24 08:47:57;;;;;;;26.47;20.33;;;;;;;11.98;75.20;92918.94;5068565;28;20189;-69
2023/03/24 08:50:26;;;;;;;21.93;19.53;;;;;;;12.38;74.65;92915.81;5068610;28;20231;-70
2023/03/24 08:52:53;;;;;;;29.73;19.67;;;;;;;12.56;74.40;92918.44;5068466;28;20211;-68
2023/03/24 08:55:19;;;;;;;24.20;19.53;;;;;;;12.70;71.37;92918.53;5069374;28;20239;-68
2023/03/24 08:57:45;;;;;;;27.77;21.10;;;;;;;12.60;70.73;92910.81;5069644;28;21237;-70
2023/03/24 09:00:15;;;;;;;27.63;19.53;;;;;;;12.65;71.59;92910.75;5068667;28;20234;-69
2023/03/24 09:02:42;;;;;;;26.60;19.90;;;;;;;12.77;71.27;92908.47;5069884;28;20195;-68
2023/03/24 09:05:08;;;;;;;25.83;19.87;;;;;;;12.95;70.72;92905.06;5071092;28;20251;-69
2023/03/24 09:07:34;;;;;;;25.37;19.57;;;;;;;12.93;71.54;92891.47;5070920;28;20787;-69
2023/03/24 09:09:59;;;;;;;22.70;18.57;;;;;;;13.21;69.07;92898.41;5071014;28;20228;-70
2023/03/24 09:12:25;;;;;;;24.47;19.20;;;;;;;13.18;69.03;92893.75;5071337;28;20178;-69
2023/03/24 09:14:50;;;;;;;20.13;18.13;;;;;;;13.36;69.32;92894.75;5071049;28;20241;-69
2023/03/24 09:17:16;;;;;;;30.13;19.33;;;;;;;13.53;67.43;92894.97;5069619;28;20245;-69
2023/03/24 09:19:43;;;;;;;22.97;18.93;;;;;;;13.57;66.88;92901.22;5069406;28;20229;-68
2023/03/24 09:22:09;;;;;;;21.27;18.40;;;;;;;13.18;68.03;92893.75;5068384;28;20195;-70
2023/03/24 09:24:35;;;;;;;21.77;19.37;;;;;;;13.47;67.25;92896.91;5069162;28;20240;-68
2023/03/24 09:27:00;;;;;;;24.00;18.77;;;;;;;13.36;67.14;92877.16;5069536;28;20189;-69
2023/03/24 09:29:26;;;;;;;21.47;17.77;;;;;;;13.47;67.75;92886.41;5070144;28;20194;-69
2023/03/24 09:31:52;;;;;;;21.30;17.50;;;;;;;13.87;66.97;92885.69;5070084;28;20674;-66
2023/03/24 09:34:19;;;;;;;24.23;17.40;;;;;;;13.85;66.31;92890.44;5070005;28;20182;-67
2023/03/24 09:36:44;;;;;;;21.07;17.83;;;;;;;13.58;64.90;92851.06;5069426;28;20193;-67
2023/03/24 09:39:10;;;;;;;20.77;17.00;;;;;;;14.12;65.09;92887.81;5069770;28;20204;-67
2023/03/24 09:41:35;;;;;;;21.77;16.70;;;;;;;14.21;62.40;92886.06;5069878;28;21718;-67
2023/03/24 09:44:27;;;;;;;19.27;17.30;;;;;;;14.13;61.25;92884.13;5070399;28;20725;-67
2023/03/24 09:46:55;;;;;;;20.30;17.90;;;;;;;13.72;62.85;92867.59;5069703;28;20228;-67
2023/03/24 09:49:24;;;;;;;20.03;15.90;;;;;;;13.93;62.50;92874.00;5069774;28;20193;-67
2023/03/24 09:51:55;;;;;;;18.83;16.77;;;;;;;13.82;64.26;92867.41;5069614;28;20189;-68
2023/03/24 09:54:35;;;;;;;23.73;16.03;;;;;;;13.93;63.40;92863.50;5068984;28;20232;-68
2023/03/24 09:57:01;;;;;;;18.47;16.43;;;;;;;13.93;62.68;92865.38;5069488;28;20197;-69
2023/03/24 09:59:38;;;;;;;19.60;16.43;;;;;;;14.36;61.04;92866.63;5069409;28;20269;-69
2023/03/24 10:02:17;;;;;;;21.07;16.27;;;;;;;14.57;58.00;92866.97;5067884;28;20197;-67
2023/03/24 10:04:42;;;;;;;17.43;15.63;;;;;;;14.55;58.89;92856.75;5068854;28;20713;-67
2023/03/24 10:07:24;;;;;;;18.30;14.87;;;;;;;14.78;57.94;92863.59;5069562;28;20189;-67
2023/03/24 10:09:55;;;;;;;23.90;16.47;;;;;;;15.01;57.33;92856.50;5067074;28;20233;-68
2023/03/24 10:12:35;;;;;;;21.97;15.80;;;;;;;14.94;56.92;92856.13;5069260;28;20188;-69
2023/03/24 10:15:31;;;;;;;17.43;15.83;;;;;;;15.03;55.55;92859.59;5068725;28;20245;-68
2023/03/24 10:18:05;;;;;;;23.00;16.20;;;;;;;14.86;55.27;92846.34;5070298;28;20196;-68
2023/03/24 10:20:36;;;;;;;23.00;18.10;;;;;;;14.78;54.66;92858.34;5066538;28;20225;-70
2023/03/24 10:23:02;;;;;;;19.77;15.77;;;;;;;14.92;55.39;92848.56;5069145;28;20208;-69
2023/03/24 10:25:59;;;;;;;17.33;15.63;;;;;;;15.05;55.88;92844.31;5068163;28;20225;-67
2023/03/24 10:28:51;;;;;;;22.47;14.77;;;;;;;14.97;55.26;92837.13;5067791;28;20227;-67
2023/03/24 10:31:22;;;;;;;18.00;15.30;;;;;;;15.00;54.78;92844.44;5069059;28;20244;-68
2023/03/24 10:33:48;;;;;;;19.37;14.93;;;;;;;15.34;53.40;92844.63;5068011;28;20185;-68
2023/03/24 10:36:19;;;;;;;16.47;14.97;;;;;;;15.39;53.80;92844.56;5068065;28;20217;-69
2023/03/24 10:38:45;;;;;;;18.13;15.77;;;;;;;14.95;53.26;92836.66;5069151;28;20177;-68
2023/03/24 10:41:18;;;;;;;17.00;15.33;;;;;;;15.27;54.64;92845.06;5068736;28;20225;-67
2023/03/24 10:43:44;;;;;;;17.30;15.60;;;;;;;15.67;51.12;92844.06;5068865;28;20190;-67
2023/03/24 10:46:15;;;;;;;17.80;15.93;;;;;;;15.65;51.01;92833.06;5069055;28;20236;-68
2023/03/24 10:48:43;;;;;;;21.10;16.10;;;;;;;15.68;51.81;92829.03;5068794;28;20189;-70
2023/03/24 10:51:17;;;;;;;17.60;15.60;;;;;;;15.61;51.32;92840.00;5068700;28;20225;-69
2023/03/24 10:53:47;;;;;;;17.17;14.87;;;;;;;15.62;51.65;92830.25;5067850;28;20247;-69
2023/03/24 10:56:40;;;;;;;19.27;16.10;;;;;;;15.56;52.64;92827.00;5068541;28;20247;-71
2023/03/24 10:59:18;;;;;;;18.53;15.60;;;;;;;15.57;52.40;92817.22;5068803;28;20252;-70
2023/03/24 11:01:45;;;;;;;18.43;15.37;;;;;;;15.76;51.71;92823.03;5067897;28;20228;-70
2023/03/24 11:04:15;;;;;;;16.80;14.90;;;;;;;15.93;52.45;92829.16;5069127;28;20182;-70
2023/03/24 11:06:57;;;;;;;18.27;16.27;;;;;;;15.93;51.48;92820.47;5067258;28;20247;-71
2023/03/24 11:09:23;;;;;;;18.23;16.53;;;;;;;15.42;51.94;92821.06;5068007;28;20192;-74
2023/03/24 11:11:51;;;;;;;22.63;15.57;;;;;;;15.80;50.64;92821.34;5068315;28;20178;-70
2023/03/24 11:14:26;;;;;;;16.73;15.03;;;;;;;15.98;52.84;92815.06;5067739;28;20236;-69
2023/03/24 11:17:00;;;;;;;18.07;16.17;;;;;;;16.16;49.39;92808.75;5068088;28;20173;-70
2023/03/24 11:19:25;;;;;;;19.53;14.00;;;;;;;16.35;48.36;92811.88;5067660;28;20256;-72
2023/03/24 11:21:56;;;;;;;16.73;14.63;;;;;;;16.21;47.46;92816.50;5064924;28;20217;-71
2023/03/24 11:24:22;;;;;;;16.60;14.97;;;;;;;15.90;47.74;92811.31;5068074;28;20189;-71
2023/03/24 11:27:13;;;;;;;23.20;15.90;;;;;;;16.29;46.13;92796.53;5066354;28;20200;-71
2023/03/24 11:29:39;;;;;;;14.10;12.70;;;;;;;16.33;46.00;92781.66;5067376;28;20229;-78
2023/03/24 11:32:13;;;;;;;15.53;14.10;;;;;;;16.45;47.29;92782.59;5068792;28;20177;-73
2023/03/24 11:34:45;;;;;;;16.37;14.77;;;;;;;16.35;45.64;92777.63;5067490;28;20221;-70
2023/03/24 11:37:15;;;;;;;18.13;16.20;;;;;;;16.32;47.38;92780.88;5068592;28;20190;-77